sensor_id;sensor_type;location;lat;lon;timestamp;temperature;humidity
8269;DHT22;4174;48.304;16.364;2023-03-01T00:02:28;1.30;99.90
8269;DHT22;4174;48.304;16.364;2023-03-01T00:08:35;1.30;99.90
8269;DHT22;4174;48.304;16.364;2023-03-01T00:14:41;1.30;99.90
8269;DHT22;4174;48.304;16.364;2023-03-01T00:20:51;1.30;99.90
8269;DHT22;4174;48.304;16.364;2023-03-01T00:26:57;1.20;99.90
8269;DHT22;4174;48.304;16.364;2023-03-01T00:33:03;1.20;99.90
8269;DHT22;4174;48.304;16.364;2023-03-01T00:39:10;1.20;99.90
8269;DHT22;4174;48.304;16.364;2023-03-01T00:45:13;1.10;99.90
8269;DHT22;4174;48.304;16.364;2023-03-01T00:51:22;1.00;99.90
8269;DHT22;4174;48.304;16.364;2023-03-01T00:57:24;1.00;99.90
8269;DHT22;4174;48.304;16.364;2023-03-01T01:03:30;0.90;99.90
8269;DHT22;4174;48.304;16.364;2023-03-01T01:09:37;0.90;99.90
8269;DHT22;4174;48.304;16.364;2023-03-01T01:15:45;0.90;99.90
8269;DHT22;4174;48.304;16.364;2023-03-01T01:21:51;0.90;99.90
8269;DHT22;4174;48.304;16.364;2023-03-01T01:27:57;0.90;99.90
8269;DHT22;4174;48.304;16.364;2023-03-01T01:34:04;0.80;99.90
8269;DHT22;4174;48.304;16.364;2023-03-01T01:40:10;0.70;99.90
8269;DHT22;4174;48.304;16.364;2023-03-01T01:46:33;0.70;99.90
8269;DHT22;4174;48.304;16.364;2023-03-01T01:52:36;0.70;99.90
8269;DHT22;4174;48.304;16.364;2023-03-01T01:58:42;0.80;99.90
8269;DHT22;4174;48.304;16.364;2023-03-01T02:04:47;0.90;99.90
8269;DHT22;4174;48.304;16.364;2023-03-01T02:10:54;1.10;99.90
8269;DHT22;4174;48.304;16.364;2023-03-01T02:17:00;1.20;99.90
8269;DHT22;4174;48.304;16.364;2023-03-01T02:23:07;1.20;99.90
8269;DHT22;4174;48.304;16.364;2023-03-01T02:29:10;1.50;99.90
8269;DHT22;4174;48.304;16.364;2023-03-01T02:35:16;1.50;99.90
8269;DHT22;4174;48.304;16.364;2023-03-01T02:41:20;1.60;99.90
8269;DHT22;4174;48.304;16.364;2023-03-01T02:47:27;1.80;99.90
8269;DHT22;4174;48.304;16.364;2023-03-01T02:53:39;1.80;99.90
8269;DHT22;4174;48.304;16.364;2023-03-01T02:59:42;1.90;99.90
8269;DHT22;4174;48.304;16.364;2023-03-01T03:05:48;2.00;99.90
8269;DHT22;4174;48.304;16.364;2023-03-01T03:11:55;2.00;99.90
8269;DHT22;4174;48.304;16.364;2023-03-01T03:18:00;2.10;99.90
8269;DHT22;4174;48.304;16.364;2023-03-01T03:24:06;2.10;99.90
8269;DHT22;4174;48.304;16.364;2023-03-01T03:30:26;2.10;99.90
8269;DHT22;4174;48.304;16.364;2023-03-01T03:36:33;2.20;99.90
8269;DHT22;4174;48.304;16.364;2023-03-01T03:42:39;2.20;99.90
8269;DHT22;4174;48.304;16.364;2023-03-01T03:48:44;2.20;99.90
8269;DHT22;4174;48.304;16.364;2023-03-01T03:54:50;2.00;99.90
8269;DHT22;4174;48.304;16.364;2023-03-01T04:00:57;2.00;99.90
8269;DHT22;4174;48.304;16.364;2023-03-01T04:07:02;1.60;99.90
8269;DHT22;4174;48.304;16.364;2023-03-01T04:13:11;1.60;99.90
8269;DHT22;4174;48.304;16.364;2023-03-01T04:19:15;1.60;99.90
8269;DHT22;4174;48.304;16.364;2023-03-01T04:25:22;1.90;99.90
8269;DHT22;4174;48.304;16.364;2023-03-01T04:31:30;1.90;99.90
8269;DHT22;4174;48.304;16.364;2023-03-01T04:37:36;1.90;99.90
8269;DHT22;4174;48.304;16.364;2023-03-01T04:43:42;2.00;99.90
8269;DHT22;4174;48.304;16.364;2023-03-01T04:49:47;2.20;99.90
8269;DHT22;4174;48.304;16.364;2023-03-01T04:55:51;2.00;99.90
8269;DHT22;4174;48.304;16.364;2023-03-01T05:02:00;2.00;99.90
8269;DHT22;4174;48.304;16.364;2023-03-01T05:08:06;2.10;99.90
8269;DHT22;4174;48.304;16.364;2023-03-01T05:14:10;2.30;99.90
8269;DHT22;4174;48.304;16.364;2023-03-01T05:20:16;2.50;99.90
8269;DHT22;4174;48.304;16.364;2023-03-01T05:26:24;2.70;99.90
8269;DHT22;4174;48.304;16.364;2023-03-01T05:38:45;2.70;99.90
8269;DHT22;4174;48.304;16.364;2023-03-01T05:44:50;2.90;99.90
8269;DHT22;4174;48.304;16.364;2023-03-01T05:50:59;2.90;99.90
8269;DHT22;4174;48.304;16.364;2023-03-01T05:57:01;2.90;99.90
8269;DHT22;4174;48.304;16.364;2023-03-01T06:09:29;3.00;99.90
8269;DHT22;4174;48.304;16.364;2023-03-01T06:15:35;3.20;99.90
8269;DHT22;4174;48.304;16.364;2023-03-01T06:21:41;3.40;99.90
8269;DHT22;4174;48.304;16.364;2023-03-01T06:27:48;3.40;99.90
8269;DHT22;4174;48.304;16.364;2023-03-01T06:33:53;3.50;99.90
8269;DHT22;4174;48.304;16.364;2023-03-01T06:39:59;3.70;99.90
8269;DHT22;4174;48.304;16.364;2023-03-01T06:46:07;3.70;99.90
8269;DHT22;4174;48.304;16.364;2023-03-01T06:52:15;3.70;99.90
8269;DHT22;4174;48.304;16.364;2023-03-01T06:58:21;3.80;99.90
8269;DHT22;4174;48.304;16.364;2023-03-01T07:04:26;3.90;99.90
8269;DHT22;4174;48.304;16.364;2023-03-01T07:10:34;3.90;99.90
8269;DHT22;4174;48.304;16.364;2023-03-01T07:16:42;4.00;99.90
8269;DHT22;4174;48.304;16.364;2023-03-01T07:22:47;4.00;99.90
8269;DHT22;4174;48.304;16.364;2023-03-01T07:28:53;4.20;99.90
8269;DHT22;4174;48.304;16.364;2023-03-01T07:35:01;4.30;99.90
8269;DHT22;4174;48.304;16.364;2023-03-01T07:41:07;4.30;99.90
8269;DHT22;4174;48.304;16.364;2023-03-01T07:53:34;4.70;99.90
8269;DHT22;4174;48.304;16.364;2023-03-01T07:59:41;4.80;99.90
8269;DHT22;4174;48.304;16.364;2023-03-01T08:05:55;5.20;99.90
8269;DHT22;4174;48.304;16.364;2023-03-01T08:12:01;5.20;99.90
8269;DHT22;4174;48.304;16.364;2023-03-01T08:18:06;5.30;99.90
8269;DHT22;4174;48.304;16.364;2023-03-01T08:24:12;5.60;99.90
8269;DHT22;4174;48.304;16.364;2023-03-01T08:30:16;5.90;99.90
8269;DHT22;4174;48.304;16.364;2023-03-01T08:36:27;6.00;99.90
8269;DHT22;4174;48.304;16.364;2023-03-01T08:42:42;6.40;99.90
8269;DHT22;4174;48.304;16.364;2023-03-01T08:48:47;6.30;99.90
8269;DHT22;4174;48.304;16.364;2023-03-01T08:54:52;5.60;99.90
8269;DHT22;4174;48.304;16.364;2023-03-01T09:01:01;5.60;99.90
8269;DHT22;4174;48.304;16.364;2023-03-01T09:07:19;6.20;99.90
8269;DHT22;4174;48.304;16.364;2023-03-01T09:13:25;7.10;99.90
8269;DHT22;4174;48.304;16.364;2023-03-01T09:19:30;7.80;99.90
8269;DHT22;4174;48.304;16.364;2023-03-01T09:25:35;7.80;97.90
8269;DHT22;4174;48.304;16.364;2023-03-01T09:31:41;8.10;95.40
8269;DHT22;4174;48.304;16.364;2023-03-01T09:37:47;8.30;95.50
8269;DHT22;4174;48.304;16.364;2023-03-01T09:43:52;8.40;95.60
8269;DHT22;4174;48.304;16.364;2023-03-01T09:50:19;8.50;92.50
8269;DHT22;4174;48.304;16.364;2023-03-01T09:56:29;8.50;92.50
8269;DHT22;4174;48.304;16.364;2023-03-01T10:02:41;8.70;92.60
8269;DHT22;4174;48.304;16.364;2023-03-01T10:09:12;8.60;92.50
8269;DHT22;4174;48.304;16.364;2023-03-01T10:15:22;8.40;93.00
8269;DHT22;4174;48.304;16.364;2023-03-01T10:21:26;8.40;92.90
8269;DHT22;4174;48.304;16.364;2023-03-01T10:27:50;8.20;91.60
8269;DHT22;4174;48.304;16.364;2023-03-01T10:34:00;8.70;94.00
8269;DHT22;4174;48.304;16.364;2023-03-01T10:40:06;8.60;93.90
8269;DHT22;4174;48.304;16.364;2023-03-01T10:46:34;9.70;91.40
8269;DHT22;4174;48.304;16.364;2023-03-01T10:52:37;10.00;88.00
8269;DHT22;4174;48.304;16.364;2023-03-01T11:05:16;11.50;83.80
8269;DHT22;4174;48.304;16.364;2023-03-01T11:11:23;12.90;70.00
8269;DHT22;4174;48.304;16.364;2023-03-01T11:17:34;12.90;70.00
8269;DHT22;4174;48.304;16.364;2023-03-01T11:23:38;12.20;75.00
8269;DHT22;4174;48.304;16.364;2023-03-01T11:29:48;11.50;74.70
8269;DHT22;4174;48.304;16.364;2023-03-01T11:36:16;11.30;73.00
8269;DHT22;4174;48.304;16.364;2023-03-01T11:42:42;10.80;74.30
8269;DHT22;4174;48.304;16.364;2023-03-01T12:01:51;10.80;80.10
8269;DHT22;4174;48.304;16.364;2023-03-01T12:08:07;10.70;80.00
8269;DHT22;4174;48.304;16.364;2023-03-01T12:14:47;9.90;80.90
8269;DHT22;4174;48.304;16.364;2023-03-01T12:27:55;9.90;81.10
8269;DHT22;4174;48.304;16.364;2023-03-01T12:34:12;9.60;83.10
8269;DHT22;4174;48.304;16.364;2023-03-01T12:40:29;9.90;83.60
8269;DHT22;4174;48.304;16.364;2023-03-01T12:46:43;10.10;84.40
8269;DHT22;4174;48.304;16.364;2023-03-01T12:52:49;10.70;81.20
8269;DHT22;4174;48.304;16.364;2023-03-01T12:59:02;10.60;80.60
8269;DHT22;4174;48.304;16.364;2023-03-01T13:11:23;10.40;82.50
8269;DHT22;4174;48.304;16.364;2023-03-01T13:17:41;10.40;81.10
8269;DHT22;4174;48.304;16.364;2023-03-01T13:23:48;10.60;82.10
8269;DHT22;4174;48.304;16.364;2023-03-01T13:29:54;11.20;82.00
8269;DHT22;4174;48.304;16.364;2023-03-01T13:36:02;11.30;81.30
8269;DHT22;4174;48.304;16.364;2023-03-01T13:42:41;11.30;80.20
8269;DHT22;4174;48.304;16.364;2023-03-01T13:48:48;11.10;83.40
8269;DHT22;4174;48.304;16.364;2023-03-01T13:54:57;11.50;80.70
8269;DHT22;4174;48.304;16.364;2023-03-01T14:01:07;11.70;79.50
8269;DHT22;4174;48.304;16.364;2023-03-01T14:07:12;11.60;81.00
8269;DHT22;4174;48.304;16.364;2023-03-01T14:13:23;11.80;80.00
8269;DHT22;4174;48.304;16.364;2023-03-01T14:19:39;11.80;83.70
8269;DHT22;4174;48.304;16.364;2023-03-01T14:25:48;12.10;79.20
8269;DHT22;4174;48.304;16.364;2023-03-01T14:31:52;11.60;78.90
8269;DHT22;4174;48.304;16.364;2023-03-01T14:37:59;11.60;82.40
8269;DHT22;4174;48.304;16.364;2023-03-01T14:44:06;11.50;81.50
8269;DHT22;4174;48.304;16.364;2023-03-01T14:50:18;11.80;78.80
8269;DHT22;4174;48.304;16.364;2023-03-01T14:56:25;11.70;77.20
8269;DHT22;4174;48.304;16.364;2023-03-01T15:02:32;11.70;78.60
8269;DHT22;4174;48.304;16.364;2023-03-01T15:08:41;11.20;79.50
8269;DHT22;4174;48.304;16.364;2023-03-01T15:14:44;11.20;80.10
8269;DHT22;4174;48.304;16.364;2023-03-01T15:20:49;11.10;79.70
8269;DHT22;4174;48.304;16.364;2023-03-01T15:26:58;10.60;80.40
8269;DHT22;4174;48.304;16.364;2023-03-01T15:39:42;10.40;81.80
8269;DHT22;4174;48.304;16.364;2023-03-01T15:45:46;9.90;84.30
8269;DHT22;4174;48.304;16.364;2023-03-01T15:51:53;9.90;85.40
8269;DHT22;4174;48.304;16.364;2023-03-01T15:58:13;9.80;88.30
8269;DHT22;4174;48.304;16.364;2023-03-01T16:04:19;9.70;87.50
8269;DHT22;4174;48.304;16.364;2023-03-01T16:10:30;9.80;87.70
8269;DHT22;4174;48.304;16.364;2023-03-01T16:16:35;9.70;87.80
8269;DHT22;4174;48.304;16.364;2023-03-01T16:22:42;9.80;91.80
8269;DHT22;4174;48.304;16.364;2023-03-01T16:28:46;9.80;91.80
8269;DHT22;4174;48.304;16.364;2023-03-01T16:34:53;9.60;93.80
8269;DHT22;4174;48.304;16.364;2023-03-01T16:41:02;9.50;93.70
8269;DHT22;4174;48.304;16.364;2023-03-01T16:47:13;9.40;94.70
8269;DHT22;4174;48.304;16.364;2023-03-01T16:53:19;9.10;95.80
8269;DHT22;4174;48.304;16.364;2023-03-01T16:59:27;8.80;96.80
8269;DHT22;4174;48.304;16.364;2023-03-01T17:05:47;8.60;98.10
8269;DHT22;4174;48.304;16.364;2023-03-01T17:12:14;8.40;99.30
8269;DHT22;4174;48.304;16.364;2023-03-01T17:18:28;8.10;99.90
8269;DHT22;4174;48.304;16.364;2023-03-01T17:24:39;7.90;99.90
8269;DHT22;4174;48.304;16.364;2023-03-01T17:30:57;7.50;99.90
8269;DHT22;4174;48.304;16.364;2023-03-01T17:37:14;7.30;99.90
8269;DHT22;4174;48.304;16.364;2023-03-01T17:43:33;7.30;99.90
8269;DHT22;4174;48.304;16.364;2023-03-01T17:49:58;7.10;99.90
8269;DHT22;4174;48.304;16.364;2023-03-01T17:56:40;7.00;99.90
8269;DHT22;4174;48.304;16.364;2023-03-01T18:02:59;6.80;99.90
8269;DHT22;4174;48.304;16.364;2023-03-01T18:09:03;6.70;99.90
8269;DHT22;4174;48.304;16.364;2023-03-01T18:15:09;6.50;99.90
8269;DHT22;4174;48.304;16.364;2023-03-01T18:21:19;6.20;99.90
8269;DHT22;4174;48.304;16.364;2023-03-01T18:27:32;6.20;99.90
8269;DHT22;4174;48.304;16.364;2023-03-01T18:33:37;6.00;99.90
8269;DHT22;4174;48.304;16.364;2023-03-01T18:39:49;6.00;99.90
8269;DHT22;4174;48.304;16.364;2023-03-01T18:45:55;6.00;99.90
8269;DHT22;4174;48.304;16.364;2023-03-01T18:52:04;5.90;99.90
8269;DHT22;4174;48.304;16.364;2023-03-01T18:58:11;5.80;99.90
8269;DHT22;4174;48.304;16.364;2023-03-01T19:04:16;5.70;99.90
8269;DHT22;4174;48.304;16.364;2023-03-01T19:10:22;5.40;99.90
8269;DHT22;4174;48.304;16.364;2023-03-01T19:16:28;5.40;99.90
8269;DHT22;4174;48.304;16.364;2023-03-01T19:22:38;5.30;99.90
8269;DHT22;4174;48.304;16.364;2023-03-01T19:28:46;5.30;99.90
8269;DHT22;4174;48.304;16.364;2023-03-01T19:34:50;5.20;99.90
8269;DHT22;4174;48.304;16.364;2023-03-01T19:40:55;5.20;99.90
8269;DHT22;4174;48.304;16.364;2023-03-01T19:47:00;4.90;99.90
8269;DHT22;4174;48.304;16.364;2023-03-01T19:53:06;4.90;99.90
8269;DHT22;4174;48.304;16.364;2023-03-01T19:59:12;4.70;99.90
8269;DHT22;4174;48.304;16.364;2023-03-01T20:05:16;4.70;99.90
8269;DHT22;4174;48.304;16.364;2023-03-01T20:11:21;4.60;99.90
8269;DHT22;4174;48.304;16.364;2023-03-01T20:17:28;4.50;99.90
8269;DHT22;4174;48.304;16.364;2023-03-01T20:23:33;4.30;99.90
8269;DHT22;4174;48.304;16.364;2023-03-01T20:29:37;4.30;99.90
8269;DHT22;4174;48.304;16.364;2023-03-01T20:35:42;4.30;99.90
8269;DHT22;4174;48.304;16.364;2023-03-01T20:41:48;4.20;99.90
8269;DHT22;4174;48.304;16.364;2023-03-01T20:47:53;4.20;99.90
8269;DHT22;4174;48.304;16.364;2023-03-01T20:53:58;4.00;99.90
8269;DHT22;4174;48.304;16.364;2023-03-01T21:00:05;4.00;99.90
8269;DHT22;4174;48.304;16.364;2023-03-01T21:06:11;4.00;99.90
8269;DHT22;4174;48.304;16.364;2023-03-01T21:12:25;4.00;99.90
8269;DHT22;4174;48.304;16.364;2023-03-01T21:18:45;3.90;99.90
8269;DHT22;4174;48.304;16.364;2023-03-01T21:24:51;3.90;99.90
8269;DHT22;4174;48.304;16.364;2023-03-01T21:31:12;3.90;99.90
8269;DHT22;4174;48.304;16.364;2023-03-01T21:37:17;4.10;99.90
8269;DHT22;4174;48.304;16.364;2023-03-01T21:43:25;4.20;99.90
8269;DHT22;4174;48.304;16.364;2023-03-01T21:49:31;4.30;99.90
8269;DHT22;4174;48.304;16.364;2023-03-01T21:55:35;4.50;99.90
8269;DHT22;4174;48.304;16.364;2023-03-01T22:01:40;4.50;99.90
8269;DHT22;4174;48.304;16.364;2023-03-01T22:07:47;4.60;99.90
8269;DHT22;4174;48.304;16.364;2023-03-01T22:13:53;4.70;99.90
8269;DHT22;4174;48.304;16.364;2023-03-01T22:19:56;4.80;99.90
8269;DHT22;4174;48.304;16.364;2023-03-01T22:26:03;4.90;99.90
8269;DHT22;4174;48.304;16.364;2023-03-01T22:32:08;5.10;99.90
8269;DHT22;4174;48.304;16.364;2023-03-01T22:38:13;5.10;99.90
8269;DHT22;4174;48.304;16.364;2023-03-01T22:44:18;5.20;99.90
8269;DHT22;4174;48.304;16.364;2023-03-01T22:50:23;5.10;99.90
8269;DHT22;4174;48.304;16.364;2023-03-01T22:56:33;5.20;99.90
8269;DHT22;4174;48.304;16.364;2023-03-01T23:02:38;5.30;99.90
8269;DHT22;4174;48.304;16.364;2023-03-01T23:08:43;5.30;99.90
8269;DHT22;4174;48.304;16.364;2023-03-01T23:14:48;5.30;99.90
8269;DHT22;4174;48.304;16.364;2023-03-01T23:20:54;5.40;99.90
8269;DHT22;4174;48.304;16.364;2023-03-01T23:27:00;5.40;99.90
8269;DHT22;4174;48.304;16.364;2023-03-01T23:33:05;5.50;99.90
8269;DHT22;4174;48.304;16.364;2023-03-01T23:39:11;5.60;99.90
8269;DHT22;4174;48.304;16.364;2023-03-01T23:45:15;5.60;99.90
8269;DHT22;4174;48.304;16.364;2023-03-01T23:51:19;5.70;99.90
8269;DHT22;4174;48.304;16.364;2023-03-01T23:57:23;5.70;99.90
